createdAt,value
2022-09-28T00:01:17.804Z,10.16
2022-09-28T00:03:46.453Z,10.22
2022-09-28T00:06:15.989Z,10.13
2022-09-28T00:08:42.784Z,10.02
2022-09-28T00:11:13.758Z,10.06
2022-09-28T00:13:41.491Z,10.24
2022-09-28T00:16:14.140Z,10.34
2022-09-28T00:18:41.666Z,10.09
2022-09-28T00:21:15.406Z,10.46
2022-09-28T00:24:01.475Z,10.25
2022-09-28T00:26:30.380Z,10.19
2022-09-28T00:29:00.119Z,10.15
2022-09-28T00:31:35.884Z,10.17
2022-09-28T00:34:02.752Z,10.23
2022-09-28T00:36:31.050Z,10.24
2022-09-28T00:38:58.887Z,10.13
2022-09-28T00:41:27.823Z,10.15
2022-09-28T00:44:15.227Z,10.05
2022-09-28T00:46:41.978Z,10.07
2022-09-28T00:49:15.778Z,10.21
2022-09-28T00:51:44.567Z,10.11
2022-09-28T00:54:12.818Z,10.09
2022-09-28T00:56:45.926Z,10.33
2022-09-28T00:59:13.003Z,10.35
2022-09-28T01:01:39.621Z,10.31
2022-09-28T01:04:06.416Z,10.20
2022-09-28T01:06:35.803Z,10.26
2022-09-28T01:09:06.300Z,10.17
2022-09-28T01:11:35.272Z,10.23
2022-09-28T01:14:02.377Z,9.95
2022-09-28T01:16:38.131Z,10.02
2022-09-28T01:19:10.783Z,10.12
2022-09-28T01:21:51.700Z,10.02
2022-09-28T01:24:38.735Z,10.12
2022-09-28T01:27:11.326Z,10.12
2022-09-28T01:29:46.092Z,10.10
2022-09-28T01:32:38.068Z,10.02
2022-09-28T01:35:15.002Z,10.12
2022-09-28T01:37:52.725Z,9.86
2022-09-28T01:40:23.053Z,9.89
2022-09-28T01:42:55.025Z,9.85
2022-09-28T01:45:31.264Z,9.90
2022-09-28T01:48:02.433Z,9.69
2022-09-28T01:50:33.352Z,9.91
2022-09-28T01:53:21.599Z,9.81
2022-09-28T01:55:54.171Z,9.90
2022-09-28T01:58:30.285Z,9.68
2022-09-28T02:01:06.132Z,9.83
2022-09-28T02:03:42.971Z,9.96
2022-09-28T02:06:16.668Z,9.91
2022-09-28T02:08:56.570Z,10.08
2022-09-28T02:11:23.032Z,9.92
2022-09-28T02:13:58.923Z,9.83
2022-09-28T02:16:28.500Z,9.86
2022-09-28T02:18:55.796Z,9.82
2022-09-28T02:21:42.942Z,9.94
2022-09-28T02:24:27.273Z,9.84
2022-09-28T02:26:57.718Z,9.79
2022-09-28T02:29:24.553Z,10.04
2022-09-28T02:31:52.221Z,9.99
2022-09-28T02:34:19.005Z,9.96
2022-09-28T02:36:46.946Z,9.91
2022-09-28T02:39:19.045Z,9.93
2022-09-28T02:41:50.544Z,9.57
2022-09-28T02:44:17.086Z,9.80
2022-09-28T02:47:05.234Z,9.79
2022-09-28T02:49:49.888Z,9.83
2022-09-28T02:52:28.563Z,9.81
2022-09-28T02:55:10.197Z,9.80
2022-09-28T02:57:59.888Z,9.78
2022-09-28T03:00:28.011Z,9.76
2022-09-28T03:03:15.892Z,9.81
2022-09-28T03:06:03.360Z,9.81
2022-09-28T03:08:37.994Z,9.89
2022-09-28T03:11:10.356Z,9.68
2022-09-28T03:13:37.856Z,9.85
2022-09-28T03:16:22.794Z,10.03
2022-09-28T03:18:49.461Z,9.68
2022-09-28T03:21:16.299Z,9.97
2022-09-28T03:23:43.355Z,9.61
2022-09-28T03:26:13.675Z,9.51
2022-09-28T03:28:40.933Z,9.46
2022-09-28T03:31:07.618Z,9.52
2022-09-28T03:33:34.276Z,9.45
2022-09-28T03:36:01.036Z,9.35
2022-09-28T03:38:27.723Z,9.38
2022-09-28T03:40:55.028Z,9.46
2022-09-28T03:43:22.226Z,9.35
2022-09-28T03:45:53.769Z,9.35
2022-09-28T03:48:32.389Z,9.19
2022-09-28T03:51:02.415Z,9.27
2022-09-28T03:53:29.897Z,9.14
2022-09-28T03:56:01.879Z,8.96
2022-09-28T03:58:28.567Z,9.04
2022-09-28T04:00:55.226Z,9.08
2022-09-28T04:03:21.956Z,9.00
2022-09-28T04:05:50.716Z,8.99
2022-09-28T04:08:17.767Z,8.80
2022-09-28T04:10:44.650Z,8.78
2022-09-28T04:13:11.722Z,8.83
2022-09-28T04:15:38.613Z,8.59
2022-09-28T04:18:13.653Z,8.92
2022-09-28T04:20:41.527Z,8.67
2022-09-28T04:23:08.163Z,8.93
2022-09-28T04:25:34.831Z,8.92
2022-09-28T04:28:19.821Z,8.89
2022-09-28T04:30:47.855Z,9.04
2022-09-28T04:33:14.481Z,8.95
2022-09-28T04:35:41.121Z,8.85
2022-09-28T04:38:07.804Z,8.66
2022-09-28T04:40:34.415Z,8.56
2022-09-28T04:43:01.055Z,8.62
2022-09-28T04:45:28.620Z,8.50
2022-09-28T04:47:55.288Z,8.49
2022-09-28T04:50:22.021Z,8.45
2022-09-28T04:52:48.623Z,8.28
2022-09-28T04:55:16.910Z,8.37
2022-09-28T04:57:43.553Z,8.26
2022-09-28T05:00:12.196Z,8.28
2022-09-28T05:02:39.285Z,8.14
2022-09-28T05:05:06.404Z,8.24
2022-09-28T05:07:33.029Z,8.17
2022-09-28T05:10:01.578Z,8.29
2022-09-28T05:12:28.168Z,8.28
2022-09-28T05:14:54.784Z,8.39
2022-09-28T05:17:21.379Z,8.45
2022-09-28T05:19:47.997Z,8.59
2022-09-28T05:22:15.148Z,8.41
2022-09-28T05:24:41.803Z,8.55
2022-09-28T05:27:08.727Z,8.83
2022-09-28T05:29:35.433Z,8.64
2022-09-28T05:32:02.383Z,9.03
2022-09-28T05:34:29.358Z,9.14
2022-09-28T05:36:56.174Z,9.17
2022-09-28T05:39:22.793Z,9.32
2022-09-28T05:41:49.508Z,9.31
2022-09-28T05:44:16.152Z,9.42
2022-09-28T05:46:42.884Z,9.59
2022-09-28T05:49:09.612Z,9.73
2022-09-28T05:51:36.254Z,9.63
2022-09-28T05:54:05.884Z,9.59
2022-09-28T05:56:33.138Z,9.65
2022-09-28T05:58:59.812Z,9.44
2022-09-28T06:01:26.635Z,9.64
2022-09-28T06:03:53.319Z,9.60
2022-09-28T06:06:19.981Z,9.81
2022-09-28T06:08:48.465Z,10.03
2022-09-28T06:11:15.150Z,10.26
2022-09-28T06:13:41.884Z,10.36
2022-09-28T06:16:08.644Z,10.56
2022-09-28T06:18:35.463Z,10.51
2022-09-28T06:21:02.855Z,10.64
2022-09-28T06:23:29.486Z,10.60
2022-09-28T06:25:56.106Z,10.99
2022-09-28T06:28:22.915Z,10.53
2022-09-28T06:30:49.538Z,11.35
2022-09-28T06:33:16.432Z,11.30
2022-09-28T06:35:43.327Z,11.52
2022-09-28T06:38:10.318Z,11.70
2022-09-28T06:40:37.616Z,12.04
2022-09-28T06:43:10.242Z,12.00
2022-09-28T06:45:38.421Z,12.06
2022-09-28T06:48:05.901Z,12.12
2022-09-28T06:50:37.439Z,12.30
2022-09-28T06:53:06.804Z,12.15
2022-09-28T06:55:34.499Z,12.41
2022-09-28T06:58:06.414Z,12.65
2022-09-28T07:00:35.571Z,12.67
2022-09-28T07:03:03.523Z,12.78
2022-09-28T07:05:30.850Z,12.88
2022-09-28T07:07:57.702Z,12.78
2022-09-28T07:10:28.897Z,12.49
2022-09-28T07:12:56.883Z,12.84
2022-09-28T07:15:24.633Z,13.13
2022-09-28T07:18:02.386Z,13.09
2022-09-28T07:20:31.299Z,13.00
2022-09-28T07:23:12.102Z,13.33
2022-09-28T07:25:47.843Z,13.13
2022-09-28T07:28:14.823Z,13.18
2022-09-28T07:30:42.308Z,13.24
2022-09-28T07:33:12.616Z,13.21
2022-09-28T07:35:39.321Z,13.46
2022-09-28T07:38:07.707Z,13.67
2022-09-28T07:40:54.710Z,13.97
2022-09-28T07:43:22.249Z,13.88
2022-09-28T07:45:50.949Z,13.91
2022-09-28T07:48:18.751Z,14.21
2022-09-28T07:50:54.032Z,14.84
2022-09-28T07:53:22.935Z,14.98
2022-09-28T07:56:02.007Z,14.61
2022-09-28T07:58:29.409Z,14.27
2022-09-28T08:00:56.033Z,14.29
2022-09-28T08:03:22.669Z,14.55
2022-09-28T08:05:49.855Z,14.03
2022-09-28T08:08:16.516Z,14.07
2022-09-28T08:10:47.005Z,14.45
2022-09-28T08:13:15.321Z,14.63
2022-09-28T08:15:42.632Z,14.03
2022-09-28T08:18:10.246Z,14.62
2022-09-28T08:20:55.640Z,14.32
2022-09-28T08:23:23.564Z,14.38
2022-09-28T08:25:54.061Z,14.49
2022-09-28T08:28:22.667Z,14.20
2022-09-28T08:30:50.341Z,14.66
2022-09-28T08:33:18.330Z,14.60
2022-09-28T08:35:45.985Z,14.68
2022-09-28T08:38:13.681Z,14.37
2022-09-28T08:40:58.071Z,14.59
2022-09-28T08:43:46.104Z,14.71
2022-09-28T08:46:15.005Z,14.75
2022-09-28T08:49:25.251Z,15.05
2022-09-28T08:52:17.965Z,15.30
2022-09-28T08:55:12.571Z,15.36
2022-09-28T08:57:51.483Z,15.44
2022-09-28T09:00:38.171Z,15.52
2022-09-28T09:03:12.777Z,15.30
2022-09-28T09:06:17.640Z,15.41
2022-09-28T09:08:51.697Z,14.84
2022-09-28T09:11:31.916Z,15.17
2022-09-28T09:14:27.856Z,15.38
2022-09-28T09:17:13.458Z,15.46
2022-09-28T09:20:01.786Z,15.82
2022-09-28T09:22:40.731Z,15.82
2022-09-28T09:25:21.539Z,15.98
2022-09-28T09:28:16.312Z,16.06
2022-09-28T09:31:13.711Z,15.72
2022-09-28T09:34:18.094Z,16.09
2022-09-28T09:37:02.845Z,16.28
2022-09-28T09:40:08.224Z,16.41
2022-09-28T09:42:40.737Z,16.42
2022-09-28T09:45:14.837Z,16.48
2022-09-28T09:47:47.293Z,16.36
2022-09-28T09:50:32.065Z,16.52
2022-09-28T09:53:42.210Z,16.72
2022-09-28T09:56:21.515Z,16.80
2022-09-28T09:58:59.872Z,16.86
2022-09-28T10:01:37.291Z,16.90
2022-09-28T10:04:08.777Z,16.72
2022-09-28T10:06:37.358Z,16.90
2022-09-28T10:09:13.796Z,17.07
2022-09-28T10:11:45.241Z,16.94
2022-09-28T10:14:25.293Z,17.08
2022-09-28T10:16:53.846Z,17.07
2022-09-28T10:19:27.590Z,17.07
2022-09-28T10:21:54.193Z,16.82
2022-09-28T10:24:31.512Z,16.99
2022-09-28T10:27:05.655Z,16.93
2022-09-28T10:29:43.275Z,17.08
2022-09-28T10:32:44.816Z,17.12
2022-09-28T10:35:24.517Z,17.17
2022-09-28T10:37:52.274Z,17.27
2022-09-28T10:40:44.815Z,17.41
2022-09-28T10:43:33.527Z,17.21
2022-09-28T10:46:21.873Z,17.28
2022-09-28T10:49:12.382Z,17.00
2022-09-28T10:51:45.393Z,17.18
2022-09-28T10:54:18.181Z,17.36
2022-09-28T10:56:46.581Z,17.49
2022-09-28T10:59:31.618Z,17.62
2022-09-28T11:02:02.658Z,17.65
2022-09-28T11:04:41.530Z,17.59
2022-09-28T11:07:24.800Z,17.49
2022-09-28T11:09:53.290Z,17.40
2022-09-28T11:12:26.213Z,17.36
2022-09-28T11:15:01.127Z,16.77
2022-09-28T11:17:32.532Z,17.27
2022-09-28T11:20:01.850Z,17.48
2022-09-28T11:22:34.601Z,17.59
2022-09-28T11:25:16.328Z,17.55
2022-09-28T11:27:52.105Z,17.76
2022-09-28T11:30:34.439Z,17.55
2022-09-28T11:33:05.301Z,17.38
2022-09-28T11:36:06.378Z,17.82
2022-09-28T11:38:39.651Z,17.88
2022-09-28T11:41:12.288Z,18.02
2022-09-28T11:43:58.108Z,17.91
2022-09-28T11:46:43.716Z,17.96
2022-09-28T11:49:38.355Z,17.97
2022-09-28T11:52:31.908Z,17.96
2022-09-28T11:55:09.853Z,18.07
2022-09-28T11:57:40.869Z,18.03
2022-09-28T12:00:15.394Z,18.19
2022-09-28T12:02:49.811Z,18.18
2022-09-28T12:05:20.702Z,18.29
2022-09-28T12:07:54.551Z,18.10
2022-09-28T12:10:45.273Z,18.09
2022-09-28T12:13:16.967Z,18.24
2022-09-28T12:16:20.031Z,18.31
2022-09-28T12:18:52.034Z,18.14
2022-09-28T12:21:24.739Z,17.92
2022-09-28T12:24:05.191Z,17.51
2022-09-28T12:26:40.095Z,17.82
2022-09-28T12:29:22.856Z,18.07
2022-09-28T12:32:26.649Z,17.67
2022-09-28T12:34:53.320Z,17.57
2022-09-28T12:37:44.440Z,17.42
2022-09-28T12:40:29.853Z,17.38
2022-09-28T12:43:33.860Z,17.59
2022-09-28T12:46:38.946Z,17.53
2022-09-28T12:52:48.098Z,18.40
2022-09-28T12:55:27.607Z,18.41
2022-09-28T12:58:36.771Z,18.68
2022-09-28T13:01:31.895Z,18.65
2022-09-28T13:04:02.992Z,18.65
2022-09-28T13:06:32.580Z,18.57
2022-09-28T13:09:01.461Z,18.51
2022-09-28T13:11:54.727Z,18.40
2022-09-28T13:14:27.100Z,18.38
2022-09-28T13:17:12.360Z,18.28
2022-09-28T13:19:55.028Z,18.36
2022-09-28T13:22:44.378Z,18.83
2022-09-28T13:25:17.765Z,19.06
2022-09-28T13:28:05.613Z,19.14
2022-09-28T13:30:35.625Z,19.18
2022-09-28T13:33:05.954Z,18.83
2022-09-28T13:35:33.404Z,18.85
2022-09-28T13:38:18.261Z,19.18
2022-09-28T13:41:06.782Z,19.13
2022-09-28T13:43:36.624Z,18.73
2022-09-28T13:46:19.837Z,18.81
2022-09-28T13:49:05.313Z,18.73
2022-09-28T13:51:40.099Z,18.70
2022-09-28T13:54:37.059Z,18.78
2022-09-28T13:57:29.879Z,18.26
2022-09-28T14:00:02.870Z,18.52
2022-09-28T14:02:36.879Z,18.57
2022-09-28T14:05:47.449Z,18.13
2022-09-28T14:08:28.657Z,18.39
2022-09-28T14:10:57.239Z,18.13
2022-09-28T14:13:44.926Z,18.38
2022-09-28T14:16:17.907Z,18.04
2022-09-28T14:18:50.088Z,18.00
2022-09-28T14:21:31.761Z,17.84
2022-09-28T14:24:39.906Z,17.56
2022-09-28T14:27:40.539Z,17.42
2022-09-28T14:30:10.230Z,17.40
2022-09-28T14:32:38.320Z,17.45
2022-09-28T14:35:18.481Z,17.39
2022-09-28T14:38:07.846Z,17.42
2022-09-28T14:41:10.061Z,17.57
2022-09-28T14:43:45.816Z,17.39
2022-09-28T14:46:14.497Z,17.29
2022-09-28T14:48:49.053Z,17.47
2022-09-28T14:51:25.093Z,17.30
2022-09-28T14:53:52.865Z,17.14
2022-09-28T14:56:19.763Z,17.03
2022-09-28T14:58:52.935Z,17.20
2022-09-28T15:01:22.227Z,17.10
2022-09-28T15:03:52.393Z,17.05
2022-09-28T15:06:22.966Z,16.82
2022-09-28T15:08:49.758Z,16.98
2022-09-28T15:11:21.742Z,16.80
2022-09-28T15:13:53.343Z,16.50
2022-09-28T15:16:24.127Z,16.59
2022-09-28T15:19:31.128Z,16.46
2022-09-28T15:21:57.804Z,16.39
2022-09-28T15:24:24.764Z,16.62
2022-09-28T15:26:52.025Z,16.47
2022-09-28T15:29:19.648Z,16.21
2022-09-28T15:31:47.557Z,16.24
2022-09-28T15:34:51.761Z,16.28
2022-09-28T15:37:23.042Z,16.19
2022-09-28T15:39:51.428Z,16.29
2022-09-28T15:42:18.721Z,16.19
2022-09-28T15:45:22.235Z,15.94
2022-09-28T15:47:48.965Z,15.85
2022-09-28T15:50:28.345Z,15.85
2022-09-28T15:53:01.204Z,15.81
2022-09-28T15:55:34.535Z,15.66
2022-09-28T15:58:08.844Z,15.70
2022-09-28T16:00:35.905Z,15.62
2022-09-28T16:03:29.147Z,15.55
2022-09-28T16:05:58.692Z,15.54
2022-09-28T16:08:42.769Z,15.44
2022-09-28T16:11:20.968Z,15.36
2022-09-28T16:13:56.504Z,15.30
2022-09-28T16:16:35.182Z,15.24
2022-09-28T16:19:02.813Z,15.11
2022-09-28T16:21:42.628Z,15.14
2022-09-28T16:24:20.031Z,15.04
2022-09-28T16:26:47.020Z,14.94
2022-09-28T16:29:32.617Z,14.94
2022-09-28T16:32:24.922Z,14.90
2022-09-28T16:35:11.757Z,14.80
2022-09-28T16:37:42.758Z,14.70
2022-09-28T16:40:12.852Z,14.68
2022-09-28T16:42:43.441Z,14.60
2022-09-28T16:45:19.960Z,14.72
2022-09-28T16:47:47.961Z,14.60
2022-09-28T16:50:15.366Z,14.52
2022-09-28T16:53:00.516Z,14.54
2022-09-28T16:55:40.200Z,14.48
2022-09-28T16:58:08.227Z,14.63
2022-09-28T17:00:35.081Z,14.68
2022-09-28T17:03:02.250Z,14.47
2022-09-28T17:05:29.532Z,14.53
2022-09-28T17:08:04.094Z,14.68
2022-09-28T17:10:50.168Z,14.63
2022-09-28T17:13:35.968Z,14.51
2022-09-28T17:16:08.445Z,14.44
2022-09-28T17:18:39.137Z,14.52
2022-09-28T17:21:10.793Z,14.50
2022-09-28T17:23:37.424Z,14.14
2022-09-28T17:26:06.517Z,14.38
2022-09-28T17:28:36.562Z,14.34
2022-09-28T17:31:07.038Z,14.32
2022-09-28T17:33:33.672Z,14.09
2022-09-28T17:36:04.754Z,14.36
2022-09-28T17:38:31.993Z,13.98
2022-09-28T17:40:58.638Z,14.22
2022-09-28T17:43:25.312Z,14.18
2022-09-28T17:45:52.006Z,14.08
2022-09-28T17:48:24.365Z,14.30
2022-09-28T17:50:51.289Z,14.11
2022-09-28T17:53:18.242Z,13.98
2022-09-28T17:55:44.845Z,14.06
2022-09-28T17:58:19.068Z,14.12
2022-09-28T18:00:47.720Z,14.11
2022-09-28T18:03:17.432Z,14.02
2022-09-28T18:05:45.748Z,13.73
2022-09-28T18:08:15.679Z,14.16
2022-09-28T18:10:42.383Z,14.06
2022-09-28T18:13:09.860Z,13.95
2022-09-28T18:15:36.536Z,13.74
2022-09-28T18:18:03.416Z,13.76
2022-09-28T18:20:30.606Z,13.75
2022-09-28T18:22:57.814Z,13.65
2022-09-28T18:25:24.486Z,13.64
2022-09-28T18:27:54.539Z,13.71
2022-09-28T18:30:21.148Z,13.66
2022-09-28T18:32:47.765Z,13.54
2022-09-28T18:35:14.453Z,13.63
2022-09-28T18:37:41.215Z,13.58
2022-09-28T18:40:09.680Z,13.52
2022-09-28T18:42:36.480Z,13.51
2022-09-28T18:45:06.256Z,13.62
2022-09-28T18:47:33.193Z,13.67
2022-09-28T18:49:59.831Z,13.47
2022-09-28T18:52:27.491Z,13.69
2022-09-28T18:54:54.188Z,13.76
2022-09-28T18:57:21.368Z,13.86
2022-09-28T18:59:48.223Z,13.43
2022-09-28T19:02:14.895Z,13.80
2022-09-28T19:04:41.625Z,13.83
2022-09-28T19:07:08.662Z,13.88
2022-09-28T19:09:35.395Z,13.91
2022-09-28T19:12:02.304Z,13.87
2022-09-28T19:14:28.891Z,13.77
2022-09-28T19:16:55.629Z,13.82
2022-09-28T19:19:22.491Z,13.85
2022-09-28T19:21:49.185Z,13.78
2022-09-28T19:24:18.251Z,13.86
2022-09-28T19:26:46.549Z,13.81
2022-09-28T19:29:13.989Z,13.80
2022-09-28T19:31:43.618Z,13.85
2022-09-28T19:34:13.483Z,13.93
2022-09-28T19:36:41.567Z,13.68
2022-09-28T19:39:08.437Z,13.80
2022-09-28T19:41:44.846Z,13.68
2022-09-28T19:44:36.428Z,13.53
2022-09-28T19:47:09.060Z,13.59
2022-09-28T19:49:40.683Z,13.83
2022-09-28T19:52:16.152Z,13.67
2022-09-28T19:54:54.373Z,13.73
2022-09-28T19:57:21.463Z,13.65
2022-09-28T19:59:52.376Z,13.45
2022-09-28T20:02:19.531Z,13.33
2022-09-28T20:04:46.227Z,13.47
2022-09-28T20:07:12.869Z,13.49
2022-09-28T20:09:39.494Z,13.28
2022-09-28T20:12:06.509Z,13.24
2022-09-28T20:14:38.031Z,13.44
2022-09-28T20:17:06.905Z,13.55
2022-09-28T20:19:33.606Z,13.39
2022-09-28T20:22:02.977Z,13.51
2022-09-28T20:24:31.269Z,13.41
2022-09-28T20:26:58.189Z,13.33
2022-09-28T20:29:24.921Z,13.53
2022-09-28T20:31:52.202Z,13.43
2022-09-28T20:34:19.110Z,13.55
2022-09-28T20:36:45.783Z,13.30
2022-09-28T20:39:12.944Z,13.88
2022-09-28T20:41:40.278Z,13.92
2022-09-28T20:44:07.264Z,14.05
2022-09-28T20:46:37.575Z,14.01
2022-09-28T20:49:05.257Z,13.96
2022-09-28T20:51:32.369Z,13.77
2022-09-28T20:53:59.449Z,13.78
2022-09-28T20:56:28.503Z,13.82
2022-09-28T20:58:55.804Z,13.89
2022-09-28T21:01:29.933Z,13.99
2022-09-28T21:03:59.013Z,13.89
2022-09-28T21:06:28.835Z,13.85
2022-09-28T21:08:55.346Z,13.76
2022-09-28T21:11:24.267Z,13.71
2022-09-28T21:13:59.984Z,13.61
2022-09-28T21:16:28.712Z,13.65
2022-09-28T21:18:55.693Z,13.52
2022-09-28T21:21:23.917Z,13.54
2022-09-28T21:23:54.916Z,13.52
2022-09-28T21:26:26.666Z,13.58
2022-09-28T21:29:04.354Z,13.62
2022-09-28T21:31:36.858Z,13.55
2022-09-28T21:34:04.713Z,13.35
2022-09-28T21:36:31.973Z,13.56
2022-09-28T21:38:58.623Z,13.59
2022-09-28T21:41:25.375Z,13.62
2022-09-28T21:43:52.595Z,13.56
2022-09-28T21:46:19.378Z,13.61
2022-09-28T21:48:46.027Z,13.68
2022-09-28T21:51:15.452Z,13.62
2022-09-28T21:53:42.839Z,13.76
2022-09-28T21:56:12.182Z,13.69
2022-09-28T21:58:40.147Z,13.61
2022-09-28T22:01:13.284Z,13.79
2022-09-28T22:06:17.871Z,13.82
2022-09-28T22:08:45.940Z,12.80
2022-09-28T22:11:17.317Z,12.80
2022-09-28T22:13:46.498Z,12.75
2022-09-28T22:16:15.172Z,12.89
2022-09-28T22:18:42.199Z,13.53
2022-09-28T22:21:12.872Z,14.21
2022-09-28T22:23:40.366Z,14.25
2022-09-28T22:26:18.993Z,14.05
2022-09-28T22:28:51.811Z,14.02
2022-09-28T22:31:20.775Z,13.84
2022-09-28T22:33:47.921Z,13.79
2022-09-28T22:36:16.981Z,14.04
2022-09-28T22:38:44.443Z,14.02
2022-09-28T22:41:11.367Z,13.88
2022-09-28T22:43:38.180Z,13.76
2022-09-28T22:46:05.804Z,13.76
2022-09-28T22:48:32.953Z,13.52
2022-09-28T22:50:59.603Z,13.34
2022-09-28T22:53:26.766Z,13.42
2022-09-28T22:55:53.466Z,13.21
2022-09-28T22:58:20.303Z,13.19
2022-09-28T23:00:48.330Z,12.90
2022-09-28T23:03:14.971Z,12.99
2022-09-28T23:05:41.857Z,13.13
2022-09-28T23:08:08.528Z,13.17
2022-09-28T23:10:35.126Z,13.25
2022-09-28T23:13:01.741Z,13.31
2022-09-28T23:15:29.035Z,12.93
2022-09-28T23:17:55.732Z,13.11
2022-09-28T23:20:23.488Z,13.24
2022-09-28T23:22:50.986Z,13.20
2022-09-28T23:25:19.625Z,13.16
2022-09-28T23:27:51.199Z,13.11
2022-09-28T23:30:20.042Z,12.99
2022-09-28T23:32:46.677Z,12.85
2022-09-28T23:35:14.317Z,12.61
2022-09-28T23:37:40.927Z,12.45
2022-09-28T23:40:07.996Z,12.54
2022-09-28T23:42:35.508Z,12.23
2022-09-28T23:45:02.114Z,12.40
2022-09-28T23:47:28.694Z,12.21
2022-09-28T23:49:55.303Z,12.19
2022-09-28T23:52:21.913Z,12.00
2022-09-28T23:54:48.604Z,11.95
2022-09-28T23:57:15.439Z,11.87
2022-09-28T23:59:41.971Z,11.78
